Time;durP1;ratioP1;P1;durP2;ratioP2;P2;SDS_P1;SDS_P2;PMS_P1;PMS_P2;Temp;Humidity;BMP_temperature;BMP_pressure;BME280_temperature;BME280_humidity;BME280_pressure;Samples;Min_cycle;Max_cycle;Signal;HPM_P1;HPM_P2
2022/10/29 00:01:44;;;;;;;5.88;2.55;;;14.60;78.10;;;;;;5041131;28;20475;-72
2022/10/29 00:04:10;;;;;;;6.57;2.03;;;14.60;78.10;;;;;;5034088;28;20040;-76
2022/10/29 00:06:36;;;;;;;7.35;2.00;;;14.60;78.40;;;;;;5024324;28;20573;-74
2022/10/29 00:09:02;;;;;;;6.90;2.63;;;14.50;77.90;;;;;;5034130;28;20045;-75
2022/10/29 00:11:28;;;;;;;4.30;2.03;;;14.50;77.80;;;;;;5018241;28;20118;-75
2022/10/29 00:13:57;;;;;;;3.97;1.55;;;14.50;77.70;;;;;;5034912;28;20041;-75
2022/10/29 00:16:26;;;;;;;6.00;1.85;;;14.50;77.70;;;;;;5017579;28;20149;-75
2022/10/29 00:18:52;;;;;;;4.90;1.67;;;14.40;77.70;;;;;;5035089;28;20099;-74
2022/10/29 00:21:21;;;;;;;7.05;1.58;;;14.40;77.80;;;;;;5051188;28;20052;-76
2022/10/29 00:23:47;;;;;;;6.00;1.67;;;14.40;77.90;;;;;;5035201;28;20036;-75
2022/10/29 00:26:14;;;;;;;4.85;1.75;;;14.40;77.90;;;;;;5034356;28;20467;-76
2022/10/29 00:28:39;;;;;;;4.93;1.65;;;14.30;78.30;;;;;;5034667;28;20502;-76
2022/10/29 00:31:08;;;;;;;6.10;2.13;;;14.30;78.00;;;;;;5033577;28;20041;-73
2022/10/29 00:33:34;;;;;;;6.40;2.05;;;14.30;78.00;;;;;;5017211;28;20495;-72
2022/10/29 00:36:04;;;;;;;5.72;1.70;;;14.40;78.10;;;;;;5017085;28;20061;-73
2022/10/29 00:38:32;;;;;;;4.22;1.30;;;14.30;78.10;;;;;;5033702;28;20036;-72
2022/10/29 00:40:58;;;;;;;6.63;2.25;;;14.30;78.10;;;;;;5033786;28;20078;-71
2022/10/29 00:43:25;;;;;;;6.72;1.90;;;14.30;78.10;;;;;;5033646;28;20554;-72
2022/10/29 00:45:56;;;;;;;7.40;1.88;;;14.20;78.10;;;;;;5033548;28;20102;-72
2022/10/29 00:48:25;;;;;;;7.55;1.75;;;14.20;78.10;;;;;;5033893;28;20051;-72
2022/10/29 00:50:52;;;;;;;5.88;2.25;;;14.20;78.10;;;;;;5033996;28;20086;-71
2022/10/29 00:53:21;;;;;;;4.30;1.75;;;14.20;78.10;;;;;;5016859;28;20041;-71
2022/10/29 00:55:47;;;;;;;4.97;1.65;;;14.20;78.50;;;;;;5047557;28;20127;-72
2022/10/29 00:58:13;;;;;;;5.65;1.50;;;14.10;77.90;;;;;;5017387;28;20515;-72
2022/10/29 01:00:38;;;;;;;5.45;1.75;;;14.20;77.90;;;;;;5034034;28;20029;-72
2022/10/29 01:03:05;;;;;;;4.97;1.40;;;14.10;78.10;;;;;;5016842;28;20554;-72
2022/10/29 01:05:33;;;;;;;2.50;1.40;;;14.10;77.80;;;;;;5033084;28;20057;-72
2022/10/29 01:08:00;;;;;;;4.78;1.80;;;14.00;77.60;;;;;;5017084;28;20580;-74
2022/10/29 01:11:11;;;;;;;5.95;2.03;;;14.00;77.70;;;;;;5034221;28;20041;-76
2022/10/29 01:13:47;;;;;;;4.13;1.65;;;14.00;77.30;;;;;;5033999;28;20033;-75
2022/10/29 01:16:39;;;;;;;2.95;1.13;;;13.90;77.40;;;;;;5033847;28;20041;-75
2022/10/29 01:19:10;;;;;;;3.28;1.35;;;13.90;77.00;;;;;;5047308;28;20056;-75
2022/10/29 01:21:37;;;;;;;6.43;1.80;;;13.80;77.10;;;;;;5034337;28;20116;-74
2022/10/29 01:24:35;;;;;;;5.35;1.52;;;13.80;77.10;;;;;;5034021;28;20033;-76
2022/10/29 01:27:07;;;;;;;9.05;3.38;;;13.80;77.10;;;;;;5020045;28;20045;-72
2022/10/29 01:29:38;;;;;;;6.88;2.35;;;13.70;77.20;;;;;;5033168;28;20112;-72
2022/10/29 01:32:15;;;;;;;6.70;2.75;;;13.70;77.10;;;;;;5032185;28;20040;-72
2022/10/29 01:35:09;;;;;;;4.53;1.70;;;13.70;77.10;;;;;;5032391;28;20044;-72
2022/10/29 01:38:11;;;;;;;5.57;1.30;;;13.60;77.00;;;;;;5032794;28;20040;-72
2022/10/29 01:40:58;;;;;;;4.38;1.48;;;13.60;77.20;;;;;;5031956;28;20052;-72
2022/10/29 01:43:38;;;;;;;3.85;1.70;;;13.60;77.30;;;;;;5033424;28;20657;-71
2022/10/29 01:46:10;;;;;;;2.85;1.35;;;13.50;77.30;;;;;;5035877;28;20438;-72
2022/10/29 01:48:41;;;;;;;4.55;1.70;;;13.50;77.30;;;;;;5036679;28;20110;-72
2022/10/29 01:51:12;;;;;;;3.35;1.65;;;13.50;77.40;;;;;;5036578;28;20044;-72
2022/10/29 01:53:39;;;;;;;3.53;1.77;;;13.40;77.90;;;;;;5021150;28;20033;-72
2022/10/29 01:56:05;;;;;;;4.70;2.10;;;13.40;77.60;;;;;;5038736;28;20051;-71
2022/10/29 01:58:34;;;;;;;8.75;2.38;;;13.40;77.80;;;;;;5033596;28;20041;-72
2022/10/29 02:01:10;;;;;;;8.82;2.70;;;13.30;77.70;;;;;;5033981;23;20054;-73
2022/10/29 02:04:13;;;;;;;8.45;3.78;;;13.30;77.70;;;;;;4998400;28;20108;-72
2022/10/29 02:06:57;;;;;;;7.50;2.63;;;13.30;77.90;;;;;;5017961;28;20073;-72
2022/10/29 02:09:34;;;;;;;14.80;3.53;;;13.20;78.10;;;;;;5009565;28;20439;-72
2022/10/29 02:12:10;;;;;;;9.20;3.30;;;13.20;78.30;;;;;;5017791;28;20448;-72
2022/10/29 02:14:42;;;;;;;18.10;5.22;;;13.10;78.50;;;;;;4998788;28;20392;-72
2022/10/29 02:17:08;;;;;;;19.45;4.28;;;13.10;78.70;;;;;;5014878;28;20045;-72
2022/10/29 02:19:34;;;;;;;38.28;5.20;;;13.00;78.80;;;;;;5024145;28;20510;-71
2022/10/29 02:22:00;;;;;;;54.83;5.85;;;13.00;79.00;;;;;;5017547;28;20484;-72
2022/10/29 02:24:26;;;;;;;8.10;3.92;;;12.90;79.30;;;;;;5005077;28;20040;-74
2022/10/29 02:26:52;;;;;;;7.90;4.05;;;12.90;79.60;;;;;;5014971;28;20041;-74
2022/10/29 02:29:18;;;;;;;6.55;3.00;;;12.90;79.90;;;;;;5002302;28;20059;-76
2022/10/29 02:31:44;;;;;;;20.52;4.93;;;12.90;80.20;;;;;;5017783;28;20045;-75
2022/10/29 02:34:10;;;;;;;39.45;5.38;;;12.80;80.40;;;;;;5017844;28;20041;-76
2022/10/29 02:36:35;;;;;;;6.32;4.78;;;12.80;80.40;;;;;;5013492;28;20504;-75
2022/10/29 02:39:01;;;;;;;27.83;6.00;;;12.70;80.40;;;;;;5017921;28;20029;-76
2022/10/29 02:41:27;;;;;;;29.38;5.72;;;12.80;80.60;;;;;;5017717;28;20037;-76
2022/10/29 02:43:52;;;;;;;5.10;3.50;;;12.70;80.60;;;;;;4998084;28;20049;-75
2022/10/29 02:46:23;;;;;;;5.57;3.97;;;12.60;80.80;;;;;;4982363;28;20096;-75
2022/10/29 02:48:49;;;;;;;7.57;5.13;;;12.70;81.10;;;;;;5016564;28;20057;-72
2022/10/29 02:51:15;;;;;;;16.90;5.72;;;12.60;81.10;;;;;;4998805;28;20061;-72
2022/10/29 02:53:41;;;;;;;19.65;5.95;;;12.60;81.20;;;;;;5013133;28;20496;-72
2022/10/29 02:56:07;;;;;;;7.88;3.35;;;12.60;81.30;;;;;;5009376;28;20042;-72
2022/10/29 02:58:33;;;;;;;7.13;4.53;;;12.60;81.30;;;;;;5003974;28;20048;-72
2022/10/29 03:01:00;;;;;;;5.13;3.17;;;12.60;81.50;;;;;;4993995;28;20450;-72
2022/10/29 03:03:26;;;;;;;6.00;3.22;;;12.60;81.60;;;;;;4998642;28;20089;-72
2022/10/29 03:05:51;;;;;;;7.97;5.05;;;12.60;81.80;;;;;;5000298;28;20120;-72
2022/10/29 03:08:17;;;;;;;11.90;6.57;;;12.60;82.00;;;;;;5016518;28;20103;-72
2022/10/29 03:10:43;;;;;;;7.00;5.57;;;12.60;81.90;;;;;;5000346;28;20128;-75
2022/10/29 03:13:09;;;;;;;6.50;4.30;;;12.60;81.90;;;;;;4999523;28;20092;-75
2022/10/29 03:15:35;;;;;;;8.95;5.57;;;12.60;82.00;;;;;;5016967;28;20095;-72
2022/10/29 03:18:01;;;;;;;6.25;3.58;;;12.60;82.10;;;;;;4999309;28;20034;-72
2022/10/29 03:20:27;;;;;;;7.05;4.05;;;12.70;82.20;;;;;;4996768;28;20112;-72
2022/10/29 03:22:52;;;;;;;5.88;3.70;;;12.70;82.30;;;;;;4993730;28;20044;-72
2022/10/29 03:25:18;;;;;;;7.57;4.35;;;12.70;82.30;;;;;;5009237;28;20041;-75
2022/10/29 03:27:45;;;;;;;6.57;4.45;;;12.70;82.40;;;;;;5007305;28;20037;-76
2022/10/29 03:30:12;;;;;;;9.32;6.10;;;12.70;82.40;;;;;;5016634;28;20480;-77
2022/10/29 03:32:42;;;;;;;8.25;5.88;;;12.70;82.50;;;;;;5000571;28;20052;-75
2022/10/29 03:35:09;;;;;;;11.82;6.40;;;12.70;82.40;;;;;;5000169;28;20492;-76
2022/10/29 03:37:35;;;;;;;7.55;4.38;;;12.80;82.40;;;;;;5016962;28;20559;-75
2022/10/29 03:40:01;;;;;;;6.63;4.32;;;12.80;82.40;;;;;;4999310;28;20045;-72
2022/10/29 03:42:30;;;;;;;5.25;4.03;;;12.80;82.30;;;;;;5015982;28;20038;-72
2022/10/29 03:44:56;;;;;;;9.93;6.05;;;12.80;82.30;;;;;;5014853;28;20077;-72
2022/10/29 03:47:22;;;;;;;10.55;5.93;;;12.90;82.30;;;;;;5016051;28;20041;-72
2022/10/29 03:49:48;;;;;;;8.02;4.82;;;12.90;82.30;;;;;;5032390;28;20033;-72
2022/10/29 03:52:13;;;;;;;15.10;7.50;;;12.90;82.30;;;;;;5016175;28;20095;-72
2022/10/29 03:54:39;;;;;;;8.23;4.65;;;12.90;82.30;;;;;;5006802;28;20049;-72
2022/10/29 03:57:05;;;;;;;7.25;4.60;;;12.90;82.30;;;;;;5012781;28;20045;-72
2022/10/29 03:59:30;;;;;;;5.85;3.85;;;12.90;82.30;;;;;;5015482;28;20041;-72
2022/10/29 04:01:56;;;;;;;8.02;5.30;;;13.00;82.40;;;;;;5012518;28;20124;-72
2022/10/29 04:04:21;;;;;;;16.00;7.32;;;13.00;82.40;;;;;;4999776;28;20080;-76
2022/10/29 04:06:47;;;;;;;17.30;8.70;;;13.00;82.40;;;;;;5037827;28;20049;-76
2022/10/29 04:09:13;;;;;;;16.20;8.38;;;13.00;82.40;;;;;;5019392;28;20037;-75
2022/10/29 04:11:38;;;;;;;16.20;8.90;;;13.10;82.40;;;;;;5035761;28;20055;-77
2022/10/29 04:14:04;;;;;;;12.60;8.68;;;13.10;82.40;;;;;;5035868;28;20051;-76
2022/10/29 04:16:30;;;;;;;17.60;8.70;;;13.10;82.50;;;;;;5019105;28;20059;-75
2022/10/29 04:18:55;;;;;;;15.15;8.88;;;13.10;82.60;;;;;;5035741;28;20037;-75
2022/10/29 04:21:21;;;;;;;14.80;7.88;;;13.10;82.60;;;;;;5035819;28;20041;-76
2022/10/29 04:23:48;;;;;;;16.83;8.57;;;13.10;82.60;;;;;;5035132;28;20041;-75
2022/10/29 04:26:14;;;;;;;16.27;8.70;;;13.10;82.70;;;;;;5024502;28;20041;-76
2022/10/29 04:28:39;;;;;;;17.67;9.27;;;13.10;82.60;;;;;;5027151;28;20048;-76
2022/10/29 04:31:06;;;;;;;14.88;8.93;;;13.10;82.60;;;;;;5035549;28;20068;-75
2022/10/29 04:33:32;;;;;;;17.55;9.18;;;13.10;82.60;;;;;;5032130;28;20116;-75
2022/10/29 04:35:58;;;;;;;13.02;8.63;;;13.10;82.60;;;;;;5030399;28;20186;-75
2022/10/29 04:38:24;;;;;;;14.70;8.23;;;13.10;82.60;;;;;;5035399;28;20037;-75
2022/10/29 04:40:49;;;;;;;14.25;7.88;;;13.10;82.50;;;;;;5038725;28;20092;-76
2022/10/29 04:43:15;;;;;;;16.60;7.63;;;13.10;82.50;;;;;;5001981;28;20041;-76
2022/10/29 04:45:41;;;;;;;9.65;7.18;;;13.00;82.50;;;;;;5010135;28;20055;-75
2022/10/29 04:48:07;;;;;;;37.25;8.30;;;13.00;82.40;;;;;;5019096;28;20032;-75
2022/10/29 04:50:36;;;;;;;18.85;8.48;;;13.00;82.40;;;;;;5035415;28;20389;-75
2022/10/29 04:53:04;;;;;;;14.93;6.85;;;13.00;82.40;;;;;;5035258;28;20041;-76
2022/10/29 04:55:29;;;;;;;7.97;7.15;;;13.00;82.40;;;;;;5034480;28;20412;-72
2022/10/29 04:57:56;;;;;;;20.23;7.40;;;13.00;82.40;;;;;;5030820;28;20021;-72
2022/10/29 05:00:22;;;;;;;13.80;7.40;;;12.90;82.40;;;;;;5037692;28;20057;-72
2022/10/29 05:02:52;;;;;;;35.45;8.23;;;12.90;82.50;;;;;;5034607;28;20048;-72
2022/10/29 05:05:19;;;;;;;7.60;6.80;;;12.90;82.70;;;;;;5033998;28;20121;-72
2022/10/29 05:07:46;;;;;;;9.05;8.15;;;12.90;82.70;;;;;;5033983;28;20055;-72
2022/10/29 05:10:12;;;;;;;9.20;6.60;;;12.90;82.80;;;;;;5034527;28;20037;-72
2022/10/29 05:12:39;;;;;;;8.35;5.30;;;12.90;82.90;;;;;;5034855;28;20502;-72
2022/10/29 05:15:05;;;;;;;8.98;7.53;;;12.90;83.00;;;;;;5017273;28;20044;-72
2022/10/29 05:17:36;;;;;;;10.02;7.95;;;12.90;83.10;;;;;;5034518;28;20515;-72
2022/10/29 05:20:02;;;;;;;10.23;7.85;;;12.90;83.20;;;;;;5038894;28;20048;-75
2022/10/29 05:22:27;;;;;;;10.95;8.75;;;12.90;83.20;;;;;;5038873;28;20033;-75
2022/10/29 05:24:53;;;;;;;9.20;8.07;;;12.90;83.10;;;;;;5002546;28;20435;-75
2022/10/29 05:27:19;;;;;;;9.98;8.63;;;12.90;83.10;;;;;;5038793;28;20377;-75
2022/10/29 05:29:44;;;;;;;14.00;8.27;;;12.90;83.10;;;;;;5038607;28;20146;-75
2022/10/29 05:32:10;;;;;;;22.58;8.50;;;12.90;83.10;;;;;;5038552;28;20388;-76
2022/10/29 05:34:36;;;;;;;23.60;8.57;;;12.90;83.00;;;;;;5038584;28;20041;-75
2022/10/29 05:37:01;;;;;;;20.65;8.90;;;12.90;82.90;;;;;;5022003;28;20052;-75
2022/10/29 05:39:27;;;;;;;32.05;9.50;;;12.90;82.80;;;;;;5022028;28;20519;-75
2022/10/29 05:41:52;;;;;;;17.67;9.30;;;12.90;82.80;;;;;;5038522;28;20120;-75
2022/10/29 05:44:18;;;;;;;10.40;8.63;;;12.90;82.70;;;;;;5034997;28;20041;-76
2022/10/29 05:46:46;;;;;;;17.13;9.00;;;12.80;82.70;;;;;;5052527;28;20048;-75
2022/10/29 05:49:12;;;;;;;10.30;8.88;;;12.80;82.80;;;;;;5038232;28;20571;-75
2022/10/29 05:51:38;;;;;;;10.77;8.82;;;12.80;82.80;;;;;;5038235;28;20128;-75
2022/10/29 05:54:03;;;;;;;10.93;8.82;;;12.80;82.90;;;;;;5022362;28;20080;-75
2022/10/29 05:56:29;;;;;;;17.02;9.30;;;12.80;83.00;;;;;;5013711;28;20049;-71
2022/10/29 05:58:55;;;;;;;13.18;9.80;;;12.80;83.00;;;;;;5035641;28;20048;-72
2022/10/29 06:01:20;;;;;;;14.05;9.77;;;12.70;82.90;;;;;;5018173;28;20053;-74
2022/10/29 06:03:46;;;;;;;15.82;9.77;;;12.70;83.00;;;;;;5036372;28;20075;-74
2022/10/29 06:06:12;;;;;;;18.92;10.85;;;12.80;83.10;;;;;;5017872;28;20029;-72
2022/10/29 06:08:37;;;;;;;23.20;10.23;;;12.70;83.10;;;;;;5042594;28;20442;-72
2022/10/29 06:11:03;;;;;;;29.55;9.75;;;12.70;83.50;;;;;;5002777;28;20056;-71
2022/10/29 06:13:29;;;;;;;18.45;10.02;;;12.70;83.20;;;;;;5049511;28;20144;-72
2022/10/29 06:15:59;;;;;;;35.25;10.63;;;12.70;83.20;;;;;;5030342;28;20128;-72
2022/10/29 06:18:26;;;;;;;13.52;9.15;;;12.60;83.20;;;;;;5037562;28;20029;-72
2022/10/29 06:20:53;;;;;;;11.75;8.93;;;12.60;83.20;;;;;;5037311;28;20040;-72
2022/10/29 06:23:18;;;;;;;11.30;9.95;;;12.60;83.40;;;;;;5037117;28;20029;-75
2022/10/29 06:25:44;;;;;;;15.55;10.52;;;12.60;83.40;;;;;;5030521;28;20124;-72
2022/10/29 06:28:13;;;;;;;16.33;10.88;;;12.60;83.50;;;;;;5010336;28;20479;-72
2022/10/29 06:30:40;;;;;;;15.02;10.63;;;12.60;83.60;;;;;;5033396;28;20048;-72
2022/10/29 06:33:06;;;;;;;11.68;8.00;;;12.60;83.60;;;;;;5035021;28;20151;-72
2022/10/29 06:35:33;;;;;;;14.55;10.68;;;12.60;83.60;;;;;;5036548;28;20037;-72
2022/10/29 06:37:58;;;;;;;18.75;13.10;;;12.60;83.70;;;;;;5036586;28;20039;-75
2022/10/29 06:40:24;;;;;;;14.73;11.70;;;12.60;83.80;;;;;;5037394;28;20036;-75
2022/10/29 06:43:01;;;;;;;18.02;12.60;;;12.60;83.80;;;;;;5037555;28;20083;-71
2022/10/29 06:45:28;;;;;;;18.10;12.25;;;12.60;83.90;;;;;;5017280;28;20484;-71
2022/10/29 06:47:53;;;;;;;26.92;14.23;;;12.60;83.90;;;;;;5031871;28;20068;-72
2022/10/29 06:50:19;;;;;;;18.15;11.35;;;12.70;83.90;;;;;;5037051;28;20578;-71
2022/10/29 06:52:56;;;;;;;17.42;12.25;;;12.70;84.10;;;;;;5011963;28;20044;-71
2022/10/29 06:55:22;;;;;;;20.60;13.00;;;12.70;84.00;;;;;;5025057;28;20505;-76
2022/10/29 06:57:54;;;;;;;17.02;10.85;;;12.70;84.00;;;;;;5037070;28;20120;-79
2022/10/29 07:00:20;;;;;;;16.30;10.50;;;12.70;84.10;;;;;;5017011;28;20030;-74
2022/10/29 07:02:45;;;;;;;20.83;12.10;;;12.70;84.10;;;;;;5037059;28;20446;-78
2022/10/29 07:05:11;;;;;;;23.98;12.93;;;12.80;84.20;;;;;;5036478;28;20523;-79
2022/10/29 07:07:37;;;;;;;19.45;12.48;;;12.80;84.20;;;;;;5017704;28;20112;-76
2022/10/29 07:10:02;;;;;;;17.88;12.35;;;12.80;84.20;;;;;;5020192;28;20037;-77
2022/10/29 07:12:28;;;;;;;17.75;12.27;;;12.80;84.20;;;;;;5033483;28;20524;-77
2022/10/29 07:14:54;;;;;;;16.17;11.60;;;12.80;84.20;;;;;;5020040;28;20124;-77
2022/10/29 07:17:19;;;;;;;15.95;11.68;;;12.90;84.20;;;;;;4996470;28;20064;-78
2022/10/29 07:19:45;;;;;;;15.05;11.88;;;12.90;84.20;;;;;;5002143;28;20072;-79
2022/10/29 07:22:10;;;;;;;17.00;11.73;;;12.90;84.20;;;;;;4968272;28;20034;-80
2022/10/29 07:24:36;;;;;;;17.35;11.73;;;13.00;84.20;;;;;;4969247;28;20041;-76
2022/10/29 07:27:02;;;;;;;17.65;12.15;;;12.90;84.10;;;;;;5016810;28;20037;-79
2022/10/29 07:29:27;;;;;;;17.25;12.43;;;13.00;84.10;;;;;;5003381;28;20045;-76
2022/10/29 07:31:53;;;;;;;16.85;11.73;;;13.00;84.10;;;;;;5019601;28;20080;-78
2022/10/29 07:34:19;;;;;;;17.00;11.55;;;13.00;84.00;;;;;;4994048;28;20041;-76
2022/10/29 07:36:44;;;;;;;14.75;11.63;;;13.10;84.10;;;;;;5010213;28;20045;-78
2022/10/29 07:39:10;;;;;;;17.15;12.50;;;13.10;84.10;;;;;;5036540;28;20033;-77
2022/10/29 07:41:35;;;;;;;16.83;12.30;;;13.10;84.10;;;;;;5019056;28;20043;-78
2022/10/29 07:44:01;;;;;;;19.75;12.20;;;13.10;84.10;;;;;;4987557;28;20043;-78
2022/10/29 07:46:27;;;;;;;17.25;12.88;;;13.10;84.10;;;;;;5035842;28;20068;-77
2022/10/29 07:48:52;;;;;;;19.35;12.32;;;13.20;84.10;;;;;;5016306;28;20049;-77
2022/10/29 07:51:18;;;;;;;17.45;13.60;;;13.20;84.10;;;;;;5020446;28;20052;-77
2022/10/29 07:53:44;;;;;;;20.05;12.82;;;13.20;84.20;;;;;;5000163;28;20049;-77
2022/10/29 07:56:10;;;;;;;22.52;14.50;;;13.30;84.30;;;;;;5017067;28;20051;-77
2022/10/29 07:58:35;;;;;;;18.70;12.75;;;13.30;84.30;;;;;;5035957;28;20033;-79
2022/10/29 08:01:01;;;;;;;15.27;11.85;;;13.30;84.40;;;;;;4988567;28;20041;-78
2022/10/29 08:03:27;;;;;;;22.00;15.18;;;13.40;84.50;;;;;;5030591;28;20044;-78
2022/10/29 08:05:56;;;;;;;24.73;16.35;;;13.40;84.60;;;;;;5019570;28;20037;-79
2022/10/29 08:08:21;;;;;;;22.67;15.93;;;13.40;84.60;;;;;;5015855;28;20041;-78
2022/10/29 08:10:47;;;;;;;27.35;16.05;;;13.50;84.70;;;;;;5000189;28;20042;-78
2022/10/29 08:13:13;;;;;;;25.98;15.57;;;13.50;85.20;;;;;;5019157;28;20090;-78
2022/10/29 08:15:38;;;;;;;24.63;15.77;;;13.50;84.90;;;;;;5035914;28;20086;-78
2022/10/29 08:18:15;;;;;;;24.83;15.48;;;13.60;85.10;;;;;;5016407;28;20037;-78
2022/10/29 08:20:41;;;;;;;20.30;14.98;;;13.60;85.20;;;;;;5003653;28;20043;-78
2022/10/29 08:23:07;;;;;;;27.02;16.05;;;13.60;85.30;;;;;;5019092;28;20036;-78
2022/10/29 08:25:35;;;;;;;27.92;17.23;;;13.70;85.40;;;;;;5035443;28;20033;-80
2022/10/29 08:28:03;;;;;;;33.80;19.40;;;13.70;85.50;;;;;;5002947;28;20114;-78
2022/10/29 08:30:30;;;;;;;34.25;19.30;;;13.80;85.80;;;;;;5035857;28;20037;-78
2022/10/29 08:32:55;;;;;;;34.63;20.25;;;13.80;86.00;;;;;;5019249;28;20045;-79
2022/10/29 08:35:21;;;;;;;32.28;19.52;;;13.90;86.20;;;;;;5019204;28;20041;-78
2022/10/29 08:37:47;;;;;;;40.70;20.83;;;13.90;86.30;;;;;;5019098;28;20037;-79
2022/10/29 08:40:41;;;;;;;34.67;20.75;;;14.00;86.60;;;;;;5035426;28;20129;-79
2022/10/29 08:43:30;;;;;;;37.67;19.92;;;14.10;86.80;;;;;;5007249;28;20480;-79
2022/10/29 08:45:56;;;;;;;37.53;20.75;;;14.20;87.00;;;;;;5035606;28;20163;-79
2022/10/29 08:48:32;;;;;;;42.35;20.38;;;14.20;87.10;;;;;;5030461;28;20433;-78
2022/10/29 08:51:06;;;;;;;36.25;19.73;;;14.30;87.40;;;;;;5015810;28;20376;-78
2022/10/29 08:53:47;;;;;;;40.75;21.02;;;14.40;87.40;;;;;;5003720;28;20067;-77
2022/10/29 08:56:32;;;;;;;32.30;18.20;;;14.40;87.40;;;;;;5035270;28;20037;-77
2022/10/29 08:59:10;;;;;;;30.33;18.42;;;14.50;87.50;;;;;;5035201;28;20044;-78
2022/10/29 09:01:36;;;;;;;27.92;18.40;;;14.60;87.60;;;;;;5034800;28;20041;-79
2022/10/29 09:04:07;;;;;;;35.65;19.80;;;14.70;87.60;;;;;;4986454;28;20033;-78
2022/10/29 09:06:46;;;;;;;31.67;17.83;;;14.70;87.50;;;;;;5035046;28;20495;-80
2022/10/29 09:09:37;;;;;;;31.40;19.83;;;14.80;87.60;;;;;;5018833;28;20055;-80
2022/10/29 09:12:26;;;;;;;34.30;19.13;;;14.80;87.50;;;;;;5035705;28;20067;-80
2022/10/29 09:15:04;;;;;;;30.02;18.80;;;14.90;87.40;;;;;;5034134;28;20041;-78
2022/10/29 09:17:42;;;;;;;30.92;18.50;;;14.90;87.30;;;;;;5015697;28;20550;-80
2022/10/29 09:20:39;;;;;;;34.25;19.67;;;15.00;87.40;;;;;;5035283;28;20431;-80
2022/10/29 09:23:30;;;;;;;32.40;18.42;;;15.10;87.50;;;;;;5015536;28;20029;-80
2022/10/29 09:26:21;;;;;;;27.85;17.40;;;15.10;87.50;;;;;;5031762;28;20045;-79
2022/10/29 09:29:24;;;;;;;27.25;16.73;;;15.20;87.60;;;;;;4999057;28;20107;-80
2022/10/29 09:32:00;;;;;;;26.95;16.98;;;15.30;87.60;;;;;;5023807;28;20498;-78
2022/10/29 09:34:33;;;;;;;26.75;15.70;;;15.40;87.70;;;;;;5015163;28;20045;-78
2022/10/29 09:36:59;;;;;;;22.33;15.80;;;15.50;87.50;;;;;;5015331;28;20041;-80
2022/10/29 09:39:34;;;;;;;21.48;14.70;;;15.60;87.30;;;;;;5023685;28;20044;-79
2022/10/29 09:42:01;;;;;;;23.92;14.60;;;15.60;87.10;;;;;;5018724;28;20390;-78
2022/10/29 09:44:45;;;;;;;19.80;14.98;;;15.70;86.80;;;;;;5018647;28;20124;-78
2022/10/29 09:47:26;;;;;;;21.30;14.98;;;15.80;86.60;;;;;;5034837;28;20052;-78
2022/10/29 09:49:58;;;;;;;27.15;14.48;;;15.80;86.50;;;;;;5018488;28;20041;-79
2022/10/29 09:52:31;;;;;;;21.13;13.80;;;15.90;86.40;;;;;;5034889;28;20048;-78
2022/10/29 09:54:59;;;;;;;22.75;14.90;;;16.00;86.20;;;;;;5018293;28;20056;-79
2022/10/29 09:57:30;;;;;;;21.88;14.93;;;16.00;85.90;;;;;;5018202;28;20118;-78
2022/10/29 10:00:00;;;;;;;23.08;14.02;;;16.10;85.80;;;;;;5051279;28;20036;-78
2022/10/29 10:02:26;;;;;;;26.10;15.32;;;16.20;85.80;;;;;;5015295;28;20060;-79
2022/10/29 10:04:56;;;;;;;27.42;16.52;;;16.20;85.50;;;;;;5015841;28;20045;-80
2022/10/29 10:07:22;;;;;;;24.58;16.77;;;16.30;85.30;;;;;;4999581;28;20421;-79
2022/10/29 10:09:53;;;;;;;22.75;15.90;;;16.30;85.00;;;;;;4999438;28;20037;-79
2022/10/29 10:12:35;;;;;;;21.52;15.07;;;16.40;84.80;;;;;;5015773;28;20660;-79
2022/10/29 10:15:27;;;;;;;25.55;14.75;;;16.40;84.70;;;;;;5013940;28;20046;-79
2022/10/29 10:18:24;;;;;;;23.50;15.13;;;16.50;84.60;;;;;;5000506;28;20060;-78
2022/10/29 10:21:01;;;;;;;27.02;14.50;;;16.60;84.70;;;;;;5012365;28;20088;-80
2022/10/29 10:23:38;;;;;;;23.58;15.30;;;16.70;84.60;;;;;;4999708;28;20044;-80
2022/10/29 10:26:04;;;;;;;20.05;14.07;;;16.80;84.60;;;;;;5014186;28;20056;-81
2022/10/29 10:28:33;;;;;;;23.13;14.80;;;16.90;84.70;;;;;;4997789;28;20038;-80
2022/10/29 10:31:12;;;;;;;23.90;14.27;;;17.00;84.50;;;;;;5013887;28;20048;-80
2022/10/29 10:33:53;;;;;;;27.23;15.05;;;17.10;84.40;;;;;;5013476;28;20049;-79
2022/10/29 10:36:25;;;;;;;22.63;16.08;;;17.20;84.00;;;;;;4981660;28;20041;-81
2022/10/29 10:38:57;;;;;;;24.48;15.15;;;17.30;83.80;;;;;;5013869;28;20069;-80
2022/10/29 10:41:27;;;;;;;22.33;14.68;;;17.40;83.70;;;;;;5013545;28;20033;-81
2022/10/29 10:43:59;;;;;;;25.02;14.95;;;17.50;83.50;;;;;;5013640;28;20067;-81
2022/10/29 10:46:32;;;;;;;24.45;14.13;;;17.60;83.20;;;;;;5030420;28;20507;-82
2022/10/29 10:49:16;;;;;;;21.60;13.35;;;17.70;83.00;;;;;;5030118;28;20041;-77
2022/10/29 10:51:47;;;;;;;17.50;11.35;;;17.80;82.80;;;;;;4997400;28;20038;-75
2022/10/29 10:54:36;;;;;;;26.38;15.10;;;17.80;82.70;;;;;;5012439;28;20037;-75
2022/10/29 10:57:11;;;;;;;25.05;15.57;;;18.00;82.50;;;;;;5012571;28;20107;-76
2022/10/29 11:00:28;;;;;;;21.55;13.13;;;18.00;82.20;;;;;;5012816;28;20542;-76
2022/10/29 11:03:07;;;;;;;21.58;12.77;;;18.10;81.50;;;;;;4989629;28;20053;-76
2022/10/29 11:05:39;;;;;;;20.05;12.32;;;18.10;81.10;;;;;;5011625;28;20184;-76
2022/10/29 15:44:39;;;;;;;20.65;9.85;;;18.90;76.20;;;;;;5168020;27;20098;-82
2022/10/29 15:47:26;;;;;;;13.90;8.68;;;18.80;76.80;;;;;;5137328;27;20057;-81
2022/10/29 15:49:52;;;;;;;14.40;8.65;;;18.70;77.60;;;;;;5138976;27;20042;-76
2022/10/29 15:52:20;;;;;;;19.33;11.00;;;18.70;78.40;;;;;;5147625;27;20039;-76
2022/10/29 15:54:46;;;;;;;18.65;9.23;;;18.70;79.10;;;;;;5154389;27;20117;-82
2022/10/29 15:57:14;;;;;;;21.15;9.55;;;18.60;78.80;;;;;;5135163;27;20126;-82
2022/10/29 15:59:40;;;;;;;15.45;9.73;;;18.60;78.80;;;;;;5116383;27;20043;-76
2022/10/29 16:02:16;;;;;;;14.02;9.10;;;18.60;79.30;;;;;;5141661;27;20477;-75
2022/10/29 16:04:41;;;;;;;17.83;9.10;;;18.50;78.80;;;;;;5148610;27;20039;-76
2022/10/29 16:07:15;;;;;;;12.63;8.57;;;18.50;79.00;;;;;;5102062;27;20032;-76
2022/10/29 16:09:45;;;;;;;13.43;8.50;;;18.50;79.00;;;;;;5118720;28;20130;-77
2022/10/29 16:12:11;;;;;;;17.05;8.80;;;18.50;79.10;;;;;;5129556;27;20035;-77
2022/10/29 16:14:36;;;;;;;13.23;8.43;;;18.50;79.10;;;;;;5114314;28;20046;-78
2022/10/29 16:17:03;;;;;;;16.30;8.60;;;18.40;79.10;;;;;;5123746;27;20035;-77
2022/10/29 16:19:28;;;;;;;15.25;7.95;;;18.40;79.10;;;;;;5115426;27;20038;-77
2022/10/29 16:21:54;;;;;;;11.43;8.13;;;18.40;79.10;;;;;;5104392;27;20047;-76
2022/10/29 16:24:20;;;;;;;15.02;8.45;;;18.40;79.10;;;;;;5138537;27;20051;-76
2022/10/29 16:26:45;;;;;;;13.63;7.93;;;18.40;79.20;;;;;;5102137;27;20035;-76
2022/10/29 16:29:14;;;;;;;14.02;9.38;;;18.40;79.20;;;;;;5127570;27;20122;-77
2022/10/29 16:31:42;;;;;;;14.60;8.88;;;18.30;79.60;;;;;;5105026;27;20382;-74
2022/10/29 16:34:12;;;;;;;16.00;9.70;;;18.30;79.20;;;;;;5129039;27;20515;-75
2022/10/29 16:36:38;;;;;;;21.55;9.27;;;18.30;79.20;;;;;;5129101;27;20513;-74
2022/10/29 16:39:03;;;;;;;17.05;9.60;;;18.30;79.10;;;;;;5111830;28;20040;-74
2022/10/29 16:41:30;;;;;;;14.32;9.20;;;18.30;79.10;;;;;;5133661;27;20049;-73
2022/10/29 16:43:55;;;;;;;15.40;8.55;;;18.30;79.10;;;;;;5136054;27;20051;-73
2022/10/29 16:46:21;;;;;;;13.77;9.18;;;18.20;79.00;;;;;;5128885;27;20481;-74
2022/10/29 16:48:47;;;;;;;13.35;8.63;;;18.20;79.00;;;;;;5136626;27;20046;-75
2022/10/29 16:51:12;;;;;;;16.10;9.00;;;18.20;79.00;;;;;;5134143;27;20027;-74
2022/10/29 16:53:38;;;;;;;16.65;9.45;;;18.30;79.00;;;;;;5111622;28;20047;-77
2022/10/29 16:56:04;;;;;;;16.67;9.85;;;18.20;78.90;;;;;;5111132;27;20404;-77
2022/10/29 16:58:30;;;;;;;18.40;9.93;;;18.20;78.90;;;;;;5118888;27;20079;-76
2022/10/29 17:01:04;;;;;;;15.48;9.65;;;18.20;78.90;;;;;;5135945;27;20085;-76
2022/10/29 17:03:30;;;;;;;19.88;10.77;;;18.20;78.80;;;;;;5117268;27;20567;-73
2022/10/29 17:06:02;;;;;;;18.20;9.45;;;18.20;78.80;;;;;;5125553;27;20041;-73
2022/10/29 17:08:32;;;;;;;22.13;10.82;;;18.20;78.80;;;;;;5118559;27;20035;-77
2022/10/29 17:10:59;;;;;;;19.80;9.55;;;18.10;78.70;;;;;;5115954;27;20046;-77
2022/10/29 17:13:25;;;;;;;21.10;10.38;;;18.10;78.70;;;;;;5118643;27;20043;-76
2022/10/29 17:15:51;;;;;;;15.35;9.52;;;18.10;78.70;;;;;;5125778;27;20044;-76
2022/10/29 17:18:16;;;;;;;19.90;10.52;;;18.10;78.70;;;;;;5132067;27;20078;-77
2022/10/29 17:20:52;;;;;;;21.85;11.32;;;18.10;78.60;;;;;;5148070;27;20089;-77
2022/10/29 17:23:18;;;;;;;20.05;10.52;;;18.10;78.60;;;;;;5099167;28;20494;-74
2022/10/29 17:25:43;;;;;;;18.40;10.27;;;18.10;78.50;;;;;;5122035;27;20065;-76